Hlavní strana
METAR-TAF:

METAR-TAF

Letiště :

Letiště Palma de Mallorca

Palma de Mallorca, Španělsko

zeměpisná šířka: 39-33N, zeměpisná délka: 002-44E, výška: 4 m

Aktuální stav počasí

Zpráva byla vytvořena před 33 minutami, v 01:30 UTC
vítr z různých směrů 2 kt
Teplota 8°C
Vlhkost vzduchu 100%
Tlak 1015 hPa
Viditelnost 10 km a více
Skoro jasno ve výšce 2000 ft

METAR: LEPA 260130Z VRB02KT 9999 FEW020 08/08 Q1015 NOSIG

Čas: 03:03 (02:03 UTC)

Předpověď počasí

Zpráva byla vytvořena před 3 hodinami a 3 minutami, v 23:00 UTC
Předpověď platná od 26 v 00 UTC do 26 v 24 UTC
Západoseverozápadní vítr 4 kt
Viditelnost 10 km a více
Skoro jasno ve výšce 2500 ft
Změna
od 26 v 01 UTC do 26 v 04 UTC
Severozápadní vítr 15 kt
Dočasný
od 26 v 04 UTC do 26 v 17 UTC
Severozápadní vítr 20 kt s nárazy do 32 kt
Změna
od 26 v 17 UTC do 26 v 19 UTC
Severozápadní vítr 5 kt

TAF: LEPA 252300Z 2600/2624 30004KT 9999 FEW025 TX17/2613Z TN07/2606Z BECMG 2601/2604 31015KT TEMPO 2604/2617 31020G32KT BECMG 2617/2619 32005KT

Stav a předpovědi počasí z více než 4 000 letišť (zprávy METAR a TAF).

Červené a žluté tečky na mapě představují dostupné meteorologické stanice.

Když kurzor umístíte na tečku, zobrazí se název stanice.

Pak kliknutím zobrazíte stav a předpověď počasí.

Chcete-li změnit mapu, kliknutím na zelené tlačítko se znaménkem +mapu přiblížíte, kliknutím na zelené tlačítko se znaménkem – mapu oddálíte a kliknutím na zelené šipky přejdete na sousední mapy.


METAR-TAF: